sensor_id;sensor_type;location;lat;lon;timestamp;pressure;altitude;pressure_sealevel;temperature;humidity
70684;BME280;58263;48.146;11.440;2023-07-29T00:01:13;95413.75;;;17.30;88.59
70684;BME280;58263;48.146;11.440;2023-07-29T00:03:41;95418.97;;;17.16;88.79
70684;BME280;58263;48.146;11.440;2023-07-29T00:06:06;95417.31;;;17.20;88.85
70684;BME280;58263;48.146;11.440;2023-07-29T00:08:32;95419.19;;;17.25;88.40
70684;BME280;58263;48.146;11.440;2023-07-29T00:10:57;95413.97;;;17.34;87.61
70684;BME280;58263;48.146;11.440;2023-07-29T00:13:22;95419.47;;;17.23;87.99
70684;BME280;58263;48.146;11.440;2023-07-29T00:15:48;95403.72;;;17.31;88.62
70684;BME280;58263;48.146;11.440;2023-07-29T00:18:13;95410.25;;;17.24;88.38
70684;BME280;58263;48.146;11.440;2023-07-29T00:20:38;95403.75;;;17.20;88.86
70684;BME280;58263;48.146;11.440;2023-07-29T00:23:04;95410.53;;;17.23;88.16
70684;BME280;58263;48.146;11.440;2023-07-29T00:25:29;95405.38;;;17.21;88.67
70684;BME280;58263;48.146;11.440;2023-07-29T00:27:55;95397.81;;;17.23;88.25
70684;BME280;58263;48.146;11.440;2023-07-29T00:30:21;95391.22;;;17.30;88.25
70684;BME280;58263;48.146;11.440;2023-07-29T00:32:46;95396.63;;;17.35;87.97
70684;BME280;58263;48.146;11.440;2023-07-29T00:35:12;95400.78;;;17.22;88.38
70684;BME280;58263;48.146;11.440;2023-07-29T00:37:37;95395.13;;;17.18;89.08
70684;BME280;58263;48.146;11.440;2023-07-29T00:40:09;95397.72;;;17.34;88.58
70684;BME280;58263;48.146;11.440;2023-07-29T00:42:37;95393.50;;;17.17;89.21
70684;BME280;58263;48.146;11.440;2023-07-29T00:45:03;95397.81;;;17.18;89.41
70684;BME280;58263;48.146;11.440;2023-07-29T00:47:31;95402.91;;;17.30;88.63
70684;BME280;58263;48.146;11.440;2023-07-29T00:49:56;95389.69;;;17.18;89.01
70684;BME280;58263;48.146;11.440;2023-07-29T00:52:21;95389.69;;;17.18;89.46
70684;BME280;58263;48.146;11.440;2023-07-29T00:54:47;95388.63;;;17.14;88.81
70684;BME280;58263;48.146;11.440;2023-07-29T00:57:13;95389.13;;;17.21;88.61
70684;BME280;58263;48.146;11.440;2023-07-29T00:59:40;95395.13;;;17.18;87.99
70684;BME280;58263;48.146;11.440;2023-07-29T01:02:05;95394.53;;;17.21;88.82
70684;BME280;58263;48.146;11.440;2023-07-29T01:04:31;95394.06;;;17.14;88.78
70684;BME280;58263;48.146;11.440;2023-07-29T01:09:39;95390.00;;;17.12;88.38
70684;BME280;58263;48.146;11.440;2023-07-29T01:17:03;95381.66;;;17.03;87.93
70684;BME280;58263;48.146;11.440;2023-07-29T01:19:42;95379.47;;;17.05;87.45
70684;BME280;58263;48.146;11.440;2023-07-29T01:22:10;95382.56;;;16.83;89.77
70684;BME280;58263;48.146;11.440;2023-07-29T01:24:36;95383.38;;;16.78;89.98
70684;BME280;58263;48.146;11.440;2023-07-29T01:27:01;95368.78;;;16.74;90.39
70684;BME280;58263;48.146;11.440;2023-07-29T01:29:29;95375.78;;;16.85;89.10
70684;BME280;58263;48.146;11.440;2023-07-29T01:31:57;95369.25;;;16.92;88.76
70684;BME280;58263;48.146;11.440;2023-07-29T01:34:55;95371.97;;;16.86;88.08
70684;BME280;58263;48.146;11.440;2023-07-29T01:37:26;95366.53;;;16.86;88.01
70684;BME280;58263;48.146;11.440;2023-07-29T01:39:54;95363.84;;;16.92;87.53
70684;BME280;58263;48.146;11.440;2023-07-29T01:42:21;95363.56;;;16.88;87.48
70684;BME280;58263;48.146;11.440;2023-07-29T01:44:47;95367.94;;;16.84;87.28
70684;BME280;58263;48.146;11.440;2023-07-29T01:47:13;95364.41;;;16.83;88.03
70684;BME280;58263;48.146;11.440;2023-07-29T01:49:39;95368.25;;;16.77;88.43
70684;BME280;58263;48.146;11.440;2023-07-29T01:52:05;95366.91;;;16.69;89.27
70684;BME280;58263;48.146;11.440;2023-07-29T01:54:30;95364.41;;;16.78;89.02
70684;BME280;58263;48.146;11.440;2023-07-29T01:56:55;95364.69;;;16.82;88.15
70684;BME280;58263;48.146;11.440;2023-07-29T01:59:20;95367.66;;;16.80;88.00
70684;BME280;58263;48.146;11.440;2023-07-29T02:01:46;95366.31;;;16.78;89.13
70684;BME280;58263;48.146;11.440;2023-07-29T02:04:11;95363.34;;;16.74;88.67
70684;BME280;58263;48.146;11.440;2023-07-29T02:06:37;95366.91;;;16.69;88.62
70684;BME280;58263;48.146;11.440;2023-07-29T02:09:02;95354.16;;;16.75;88.58
70684;BME280;58263;48.146;11.440;2023-07-29T02:11:29;95363.34;;;16.74;89.27
70684;BME280;58263;48.146;11.440;2023-07-29T02:13:55;95359.63;;;16.65;89.60
70684;BME280;58263;48.146;11.440;2023-07-29T02:16:21;95359.06;;;16.68;89.85
70684;BME280;58263;48.146;11.440;2023-07-29T02:18:47;95355.28;;;16.69;89.52
70684;BME280;58263;48.146;11.440;2023-07-29T02:21:12;95361.81;;;16.58;90.50
70684;BME280;58263;48.146;11.440;2023-07-29T02:23:38;95363.47;;;16.48;89.71
70684;BME280;58263;48.146;11.440;2023-07-29T02:26:03;95364.03;;;16.50;89.34
70684;BME280;58263;48.146;11.440;2023-07-29T02:28:28;95363.47;;;16.53;88.66
70684;BME280;58263;48.146;11.440;2023-07-29T02:31:14;95371.06;;;16.51;88.53
70684;BME280;58263;48.146;11.440;2023-07-29T02:33:39;95363.47;;;16.53;89.42
70684;BME280;58263;48.146;11.440;2023-07-29T02:36:04;95365.38;;;16.53;89.30
70684;BME280;58263;48.146;11.440;2023-07-29T02:38:30;95371.34;;;16.45;89.70
70684;BME280;58263;48.146;11.440;2023-07-29T02:40:55;95372.16;;;16.50;90.08
70684;BME280;58263;48.146;11.440;2023-07-29T02:43:20;95370.00;;;16.47;89.85
70684;BME280;58263;48.146;11.440;2023-07-29T02:45:46;95367.56;;;16.46;90.02
70684;BME280;58263;48.146;11.440;2023-07-29T02:48:14;95368.38;;;16.46;90.36
70684;BME280;58263;48.146;11.440;2023-07-29T02:50:39;95368.66;;;16.45;89.45
70684;BME280;58263;48.146;11.440;2023-07-29T02:53:04;95363.53;;;16.38;90.48
70684;BME280;58263;48.146;11.440;2023-07-29T02:55:30;95365.66;;;16.46;89.65
70684;BME280;58263;48.146;11.440;2023-07-29T02:57:55;95364.09;;;16.35;90.43
70684;BME280;58263;48.146;11.440;2023-07-29T03:00:20;95365.97;;;16.39;90.25
70684;BME280;58263;48.146;11.440;2023-07-29T03:02:46;95358.34;;;16.47;89.56
70684;BME280;58263;48.146;11.440;2023-07-29T03:05:11;95353.22;;;16.45;89.78
70684;BME280;58263;48.146;11.440;2023-07-29T03:07:36;95355.69;;;16.42;89.37
70684;BME280;58263;48.146;11.440;2023-07-29T03:10:02;95348.63;;;16.41;89.43
70684;BME280;58263;48.146;11.440;2023-07-29T03:12:27;95359.19;;;16.37;89.80
70684;BME280;58263;48.146;11.440;2023-07-29T03:14:53;95359.75;;;16.34;90.73
70684;BME280;58263;48.146;11.440;2023-07-29T03:17:18;95368.97;;;16.28;91.28
70684;BME280;58263;48.146;11.440;2023-07-29T03:19:43;95364.66;;;16.27;91.93
70684;BME280;58263;48.146;11.440;2023-07-29T03:22:08;95354.34;;;16.34;91.38
70684;BME280;58263;48.146;11.440;2023-07-29T03:24:34;95336.97;;;16.40;91.01
70684;BME280;58263;48.146;11.440;2023-07-29T03:26:59;95329.91;;;16.49;90.12
70684;BME280;58263;48.146;11.440;2023-07-29T03:29:24;95334.31;;;16.35;89.94
70684;BME280;58263;48.146;11.440;2023-07-29T03:31:50;95336.47;;;16.33;90.84
70684;BME280;58263;48.146;11.440;2023-07-29T03:34:15;95337.53;;;16.37;91.15
70684;BME280;58263;48.146;11.440;2023-07-29T03:36:40;95341.03;;;16.43;90.46
70684;BME280;58263;48.146;11.440;2023-07-29T03:39:06;95347.81;;;16.40;91.38
70684;BME280;58263;48.146;11.440;2023-07-29T03:41:32;95348.94;;;16.34;91.83
70684;BME280;58263;48.146;11.440;2023-07-29T03:43:58;95352.69;;;16.43;91.48
70684;BME280;58263;48.146;11.440;2023-07-29T03:46:25;95359.69;;;16.44;91.27
70684;BME280;58263;48.146;11.440;2023-07-29T03:48:50;95358.88;;;16.54;90.80
70684;BME280;58263;48.146;11.440;2023-07-29T03:51:15;95360.75;;;16.53;91.88
70684;BME280;58263;48.146;11.440;2023-07-29T03:53:41;95368.63;;;16.50;91.74
70684;BME280;58263;48.146;11.440;2023-07-29T03:56:07;95357.53;;;16.51;92.15
70684;BME280;58263;48.146;11.440;2023-07-29T03:58:33;95354.28;;;16.49;91.89
70684;BME280;58263;48.146;11.440;2023-07-29T04:00:58;95353.69;;;16.58;91.38
70684;BME280;58263;48.146;11.440;2023-07-29T04:03:24;95349.63;;;16.55;91.60
70684;BME280;58263;48.146;11.440;2023-07-29T04:05:49;95335.09;;;16.46;92.40
70684;BME280;58263;48.146;11.440;2023-07-29T04:08:14;95339.66;;;16.45;92.37
70684;BME280;58263;48.146;11.440;2023-07-29T04:10:40;95332.38;;;16.46;92.25
70684;BME280;58263;48.146;11.440;2023-07-29T04:13:05;95327.22;;;16.44;91.69
70684;BME280;58263;48.146;11.440;2023-07-29T04:15:30;95325.56;;;16.48;91.94
70684;BME280;58263;48.146;11.440;2023-07-29T04:17:56;95320.22;;;16.43;91.97
70684;BME280;58263;48.146;11.440;2023-07-29T04:20:21;95324.19;;;16.56;90.76
70684;BME280;58263;48.146;11.440;2023-07-29T04:22:46;95315.28;;;16.50;91.13
70684;BME280;58263;48.146;11.440;2023-07-29T04:25:12;95314.50;;;16.50;91.00
70684;BME280;58263;48.146;11.440;2023-07-29T04:27:38;95317.16;;;16.55;90.79
70684;BME280;58263;48.146;11.440;2023-07-29T04:30:03;95310.94;;;16.54;91.29
70684;BME280;58263;48.146;11.440;2023-07-29T04:32:29;95314.69;;;16.59;90.89
70684;BME280;58263;48.146;11.440;2023-07-29T04:34:54;95317.91;;;16.66;90.22
70684;BME280;58263;48.146;11.440;2023-07-29T04:37:19;95312.75;;;16.69;89.62
70684;BME280;58263;48.146;11.440;2023-07-29T04:39:45;95321.66;;;16.70;90.21
70684;BME280;58263;48.146;11.440;2023-07-29T04:42:11;95315.16;;;16.71;89.22
70684;BME280;58263;48.146;11.440;2023-07-29T04:44:36;95321.63;;;16.80;90.29
70684;BME280;58263;48.146;11.440;2023-07-29T04:47:02;95318.16;;;16.75;89.61
70684;BME280;58263;48.146;11.440;2023-07-29T04:49:27;95318.44;;;16.68;89.28
70684;BME280;58263;48.146;11.440;2023-07-29T04:51:52;95317.53;;;16.83;89.76
70684;BME280;58263;48.146;11.440;2023-07-29T04:54:18;95323.47;;;16.85;89.64
70684;BME280;58263;48.146;11.440;2023-07-29T04:56:45;95320.44;;;17.02;89.04
70684;BME280;58263;48.146;11.440;2023-07-29T04:59:11;95317.13;;;17.10;89.08
70684;BME280;58263;48.146;11.440;2023-07-29T05:01:38;95319.63;;;17.36;87.34
70684;BME280;58263;48.146;11.440;2023-07-29T05:04:03;95315.59;;;17.33;88.68
70684;BME280;58263;48.146;11.440;2023-07-29T05:06:29;95316.34;;;17.39;87.47
70684;BME280;58263;48.146;11.440;2023-07-29T05:08:54;95311.81;;;17.58;86.63
70684;BME280;58263;48.146;11.440;2023-07-29T05:11:19;95311.03;;;17.58;87.19
70684;BME280;58263;48.146;11.440;2023-07-29T05:13:44;95299.09;;;17.59;86.90
70684;BME280;58263;48.146;11.440;2023-07-29T05:16:10;95295.59;;;17.83;85.59
70684;BME280;58263;48.146;11.440;2023-07-29T05:18:35;95285.28;;;17.55;86.39
70684;BME280;58263;48.146;11.440;2023-07-29T05:21:00;95291.38;;;17.71;85.71
70684;BME280;58263;48.146;11.440;2023-07-29T05:23:26;95294.78;;;17.82;86.16
70684;BME280;58263;48.146;11.440;2023-07-29T05:25:51;95297.09;;;17.94;85.68
70684;BME280;58263;48.146;11.440;2023-07-29T05:28:16;95296.22;;;18.04;84.85
70684;BME280;58263;48.146;11.440;2023-07-29T05:30:43;95299.53;;;18.20;84.96
70684;BME280;58263;48.146;11.440;2023-07-29T05:33:08;95306.06;;;18.19;84.20
70684;BME280;58263;48.146;11.440;2023-07-29T05:35:34;95304.16;;;18.19;84.35
70684;BME280;58263;48.146;11.440;2023-07-29T05:37:59;95302.19;;;18.25;84.34
70684;BME280;58263;48.146;11.440;2023-07-29T05:40:24;95305.94;;;18.29;84.13
70684;BME280;58263;48.146;11.440;2023-07-29T05:42:50;95312.75;;;18.27;84.86
70684;BME280;58263;48.146;11.440;2023-07-29T05:45:15;95306.78;;;18.30;84.54
70684;BME280;58263;48.146;11.440;2023-07-29T05:47:41;95315.75;;;18.49;84.20
70684;BME280;58263;48.146;11.440;2023-07-29T05:50:06;95318.25;;;18.21;84.68
70684;BME280;58263;48.146;11.440;2023-07-29T05:52:32;95344.34;;;18.17;86.16
70684;BME280;58263;48.146;11.440;2023-07-29T05:54:58;95365.03;;;18.13;86.42
70684;BME280;58263;48.146;11.440;2023-07-29T05:57:23;95361.47;;;18.18;86.54
70684;BME280;58263;48.146;11.440;2023-07-29T05:59:49;95332.59;;;18.03;86.06
70684;BME280;58263;48.146;11.440;2023-07-29T06:02:14;95296.94;;;18.10;87.43
70684;BME280;58263;48.146;11.440;2023-07-29T06:04:39;95300.16;;;17.87;90.38
70684;BME280;58263;48.146;11.440;2023-07-29T06:07:06;95296.16;;;17.80;90.67
70684;BME280;58263;48.146;11.440;2023-07-29T06:09:31;95299.84;;;17.65;91.95
70684;BME280;58263;48.146;11.440;2023-07-29T06:11:56;95297.88;;;17.70;91.81
70684;BME280;58263;48.146;11.440;2023-07-29T06:14:22;95308.97;;;17.74;91.33
70684;BME280;58263;48.146;11.440;2023-07-29T06:16:47;95303.44;;;17.84;90.50
70684;BME280;58263;48.146;11.440;2023-07-29T06:19:12;95321.38;;;17.80;91.41
70684;BME280;58263;48.146;11.440;2023-07-29T06:21:38;95323.91;;;18.01;90.73
70684;BME280;58263;48.146;11.440;2023-07-29T06:24:04;95321.13;;;18.06;90.06
70684;BME280;58263;48.146;11.440;2023-07-29T06:26:29;95322.06;;;18.20;89.22
70684;BME280;58263;48.146;11.440;2023-07-29T06:28:54;95326.88;;;18.29;89.00
70684;BME280;58263;48.146;11.440;2023-07-29T06:31:19;95341.63;;;18.17;88.30
70684;BME280;58263;48.146;11.440;2023-07-29T06:33:45;95339.97;;;18.21;87.62
70684;BME280;58263;48.146;11.440;2023-07-29T06:36:11;95346.47;;;18.26;88.33
70684;BME280;58263;48.146;11.440;2023-07-29T06:38:37;95358.28;;;18.35;88.35
70684;BME280;58263;48.146;11.440;2023-07-29T06:41:04;95361.22;;;18.14;89.34
70684;BME280;58263;48.146;11.440;2023-07-29T06:43:29;95387.78;;;18.17;89.92
70684;BME280;58263;48.146;11.440;2023-07-29T06:45:54;95407.53;;;17.99;90.57
70684;BME280;58263;48.146;11.440;2023-07-29T06:48:20;95415.97;;;17.97;93.21
70684;BME280;58263;48.146;11.440;2023-07-29T06:50:46;95420.00;;;18.00;95.31
70684;BME280;58263;48.146;11.440;2023-07-29T06:53:11;95418.56;;;18.07;93.06
70684;BME280;58263;48.146;11.440;2023-07-29T06:55:37;95421.13;;;17.94;95.33
70684;BME280;58263;48.146;11.440;2023-07-29T06:58:02;95420.53;;;18.02;94.79
70684;BME280;58263;48.146;11.440;2023-07-29T07:00:27;95405.41;;;17.96;92.79
70684;BME280;58263;48.146;11.440;2023-07-29T07:02:53;95405.28;;;18.06;93.28
70684;BME280;58263;48.146;11.440;2023-07-29T07:05:18;95403.16;;;18.03;93.15
70684;BME280;58263;48.146;11.440;2023-07-29T07:07:44;95397.13;;;18.06;92.94
70684;BME280;58263;48.146;11.440;2023-07-29T07:10:09;95398.06;;;17.96;93.87
70684;BME280;58263;48.146;11.440;2023-07-29T07:12:35;95398.31;;;18.00;92.82
70684;BME280;58263;48.146;11.440;2023-07-29T07:15:00;95393.63;;;18.05;94.22
70684;BME280;58263;48.146;11.440;2023-07-29T07:17:26;95404.66;;;18.14;93.31
70684;BME280;58263;48.146;11.440;2023-07-29T07:19:51;95393.63;;;18.05;93.49
70684;BME280;58263;48.146;11.440;2023-07-29T07:22:16;95391.78;;;18.25;94.56
70684;BME280;58263;48.146;11.440;2023-07-29T07:24:42;95392.53;;;18.06;94.76
70684;BME280;58263;48.146;11.440;2023-07-29T07:27:07;95369.22;;;18.30;95.77
70684;BME280;58263;48.146;11.440;2023-07-29T07:29:32;95354.66;;;18.20;91.66
70684;BME280;58263;48.146;11.440;2023-07-29T07:31:58;95360.53;;;18.28;92.34
70684;BME280;58263;48.146;11.440;2023-07-29T07:34:24;95359.84;;;18.17;93.49
70684;BME280;58263;48.146;11.440;2023-07-29T07:36:49;95353.88;;;18.39;91.83
70684;BME280;58263;48.146;11.440;2023-07-29T07:39:15;95342.97;;;18.44;91.74
70684;BME280;58263;48.146;11.440;2023-07-29T07:41:41;95329.13;;;18.65;90.32
70684;BME280;58263;48.146;11.440;2023-07-29T07:44:06;95332.06;;;18.87;88.91
70684;BME280;58263;48.146;11.440;2023-07-29T07:46:31;95323.34;;;18.90;89.26
70684;BME280;58263;48.146;11.440;2023-07-29T07:48:57;95321.72;;;18.89;87.55
70684;BME280;58263;48.146;11.440;2023-07-29T07:51:22;95326.41;;;18.84;89.23
70684;BME280;58263;48.146;11.440;2023-07-29T07:53:48;95331.09;;;19.02;88.15
70684;BME280;58263;48.146;11.440;2023-07-29T07:56:13;95334.94;;;19.15;88.54
70684;BME280;58263;48.146;11.440;2023-07-29T07:58:39;95333.41;;;19.28;88.09
70684;BME280;58263;48.146;11.440;2023-07-29T08:01:05;95333.84;;;19.16;89.84
70684;BME280;58263;48.146;11.440;2023-07-29T08:03:31;95335.50;;;19.50;87.93
70684;BME280;58263;48.146;11.440;2023-07-29T08:05:57;95329.78;;;19.33;87.19
70684;BME280;58263;48.146;11.440;2023-07-29T08:08:22;95340.56;;;19.57;88.96
70684;BME280;58263;48.146;11.440;2023-07-29T08:10:47;95334.03;;;19.72;86.83
70684;BME280;58263;48.146;11.440;2023-07-29T08:13:16;95330.28;;;19.54;88.14
70684;BME280;58263;48.146;11.440;2023-07-29T08:15:41;95329.63;;;19.76;86.77
70684;BME280;58263;48.146;11.440;2023-07-29T08:18:07;95323.16;;;19.72;85.31
70684;BME280;58263;48.146;11.440;2023-07-29T08:20:32;95327.75;;;19.90;85.04
70684;BME280;58263;48.146;11.440;2023-07-29T08:22:57;95324.63;;;19.97;85.30
70684;BME280;58263;48.146;11.440;2023-07-29T08:25:23;95331.22;;;20.10;85.36
70684;BME280;58263;48.146;11.440;2023-07-29T08:27:48;95332.31;;;20.65;82.20
70684;BME280;58263;48.146;11.440;2023-07-29T08:30:13;95328.41;;;20.15;81.03
70684;BME280;58263;48.146;11.440;2023-07-29T08:32:40;95332.72;;;20.16;83.72
70684;BME280;58263;48.146;11.440;2023-07-29T08:35:06;95331.22;;;20.10;82.59
70684;BME280;58263;48.146;11.440;2023-07-29T08:37:31;95331.59;;;20.17;83.89
70684;BME280;58263;48.146;11.440;2023-07-29T08:39:57;95326.38;;;20.21;83.90
70684;BME280;58263;48.146;11.440;2023-07-29T08:42:23;95329.19;;;20.30;81.52
70684;BME280;58263;48.146;11.440;2023-07-29T08:44:54;95333.22;;;20.46;80.68
70684;BME280;58263;48.146;11.440;2023-07-29T08:47:19;95323.50;;;20.68;81.39
70684;BME280;58263;48.146;11.440;2023-07-29T08:49:46;95331.81;;;20.76;79.47
70684;BME280;58263;48.146;11.440;2023-07-29T08:52:14;95338.84;;;20.64;81.58
70684;BME280;58263;48.146;11.440;2023-07-29T08:54:39;95337.69;;;20.70;79.93
70684;BME280;58263;48.146;11.440;2023-07-29T08:57:06;95340.91;;;20.72;80.10
70684;BME280;58263;48.146;11.440;2023-07-29T08:59:32;95342.47;;;20.87;80.16
70684;BME280;58263;48.146;11.440;2023-07-29T09:01:58;95343.59;;;21.22;78.75
70684;BME280;58263;48.146;11.440;2023-07-29T09:04:23;95347.06;;;21.14;79.82
70684;BME280;58263;48.146;11.440;2023-07-29T09:06:51;95336.50;;;21.21;80.03
70684;BME280;58263;48.146;11.440;2023-07-29T09:09:16;95347.66;;;21.48;75.93
70684;BME280;58263;48.146;11.440;2023-07-29T09:11:42;95347.88;;;21.83;77.19
70684;BME280;58263;48.146;11.440;2023-07-29T09:14:08;95338.59;;;21.84;76.70
70684;BME280;58263;48.146;11.440;2023-07-29T09:16:35;95348.31;;;21.99;74.60
70684;BME280;58263;48.146;11.440;2023-07-29T09:19:02;95344.88;;;22.24;74.08
70684;BME280;58263;48.146;11.440;2023-07-29T09:21:28;95329.91;;;22.53;71.48
70684;BME280;58263;48.146;11.440;2023-07-29T09:23:54;95335.59;;;22.74;71.41
70684;BME280;58263;48.146;11.440;2023-07-29T09:26:27;95327.59;;;23.39;70.15
70684;BME280;58263;48.146;11.440;2023-07-29T09:28:56;95332.72;;;23.76;66.07
70684;BME280;58263;48.146;11.440;2023-07-29T09:31:24;95334.78;;;23.79;66.37
70684;BME280;58263;48.146;11.440;2023-07-29T09:33:50;95320.66;;;23.59;64.46
70684;BME280;58263;48.146;11.440;2023-07-29T09:36:20;95321.03;;;24.14;64.89
70684;BME280;58263;48.146;11.440;2023-07-29T09:38:46;95323.50;;;24.07;60.83
70684;BME280;58263;48.146;11.440;2023-07-29T09:41:12;95324.59;;;24.53;62.26
70684;BME280;58263;48.146;11.440;2023-07-29T09:43:39;95316.81;;;24.55;61.96
70684;BME280;58263;48.146;11.440;2023-07-29T09:46:05;95316.91;;;24.97;61.55
70684;BME280;58263;48.146;11.440;2023-07-29T09:48:36;95315.38;;;25.51;61.33
70684;BME280;58263;48.146;11.440;2023-07-29T09:51:14;95320.28;;;25.79;59.20
70684;BME280;58263;48.146;11.440;2023-07-29T09:53:44;95319.03;;;25.43;58.07
70684;BME280;58263;48.146;11.440;2023-07-29T09:56:10;95321.34;;;25.53;57.69
70684;BME280;58263;48.146;11.440;2023-07-29T09:58:36;95313.81;;;25.62;57.62
70684;BME280;58263;48.146;11.440;2023-07-29T10:01:06;95306.91;;;25.90;57.91
70684;BME280;58263;48.146;11.440;2023-07-29T10:03:31;95305.78;;;25.57;57.56
70684;BME280;58263;48.146;11.440;2023-07-29T10:06:05;95298.19;;;26.34;60.78
70684;BME280;58263;48.146;11.440;2023-07-29T10:08:31;95296.72;;;27.14;56.46
70684;BME280;58263;48.146;11.440;2023-07-29T10:11:06;95298.75;;;27.29;53.82
70684;BME280;58263;48.146;11.440;2023-07-29T10:13:32;95304.16;;;26.85;51.60
70684;BME280;58263;48.146;11.440;2023-07-29T10:15:58;95296.78;;;27.42;52.97
70684;BME280;58263;48.146;11.440;2023-07-29T10:18:24;95293.56;;;27.69;51.76
70684;BME280;58263;48.146;11.440;2023-07-29T10:20:51;95284.88;;;27.66;51.55
70684;BME280;58263;48.146;11.440;2023-07-29T10:23:18;95293.53;;;27.97;50.17
70684;BME280;58263;48.146;11.440;2023-07-29T10:25:50;95284.63;;;27.88;49.46
70684;BME280;58263;48.146;11.440;2023-07-29T10:28:20;95275.16;;;28.17;48.75
70684;BME280;58263;48.146;11.440;2023-07-29T10:30:47;95274.09;;;28.38;48.27
70684;BME280;58263;48.146;11.440;2023-07-29T10:33:13;95279.28;;;28.59;47.67
70684;BME280;58263;48.146;11.440;2023-07-29T10:35:39;95276.28;;;28.64;47.85
70684;BME280;58263;48.146;11.440;2023-07-29T10:38:05;95277.03;;;29.16;46.02
70684;BME280;58263;48.146;11.440;2023-07-29T10:41:07;95276.16;;;28.92;45.06
70684;BME280;58263;48.146;11.440;2023-07-29T10:43:34;95271.66;;;28.68;46.62
70684;BME280;58263;48.146;11.440;2023-07-29T10:46:19;95266.84;;;29.79;44.42
70684;BME280;58263;48.146;11.440;2023-07-29T10:48:52;95270.94;;;30.31;42.92
70684;BME280;58263;48.146;11.440;2023-07-29T10:54:00;95272.50;;;30.06;44.69
70684;BME280;58263;48.146;11.440;2023-07-29T10:56:33;95280.03;;;29.07;45.57
70684;BME280;58263;48.146;11.440;2023-07-29T11:01:53;95275.50;;;28.99;47.11
70684;BME280;58263;48.146;11.440;2023-07-29T11:17:34;95309.09;;;27.32;44.71
70684;BME280;58263;48.146;11.440;2023-07-29T11:20:03;95299.91;;;27.41;44.23
70684;BME280;58263;48.146;11.440;2023-07-29T11:22:29;95312.75;;;26.71;45.73
70684;BME280;58263;48.146;11.440;2023-07-29T11:24:55;95308.03;;;26.22;46.67
70684;BME280;58263;48.146;11.440;2023-07-29T11:27:21;95302.88;;;26.45;48.02
70684;BME280;58263;48.146;11.440;2023-07-29T11:29:47;95275.63;;;30.27;39.74
70684;BME280;58263;48.146;11.440;2023-07-29T11:32:12;95281.41;;;32.28;37.84
70684;BME280;58263;48.146;11.440;2023-07-29T11:34:38;95277.25;;;33.11;35.07
70684;BME280;58263;48.146;11.440;2023-07-29T11:37:05;95287.72;;;33.32;35.11
70684;BME280;58263;48.146;11.440;2023-07-29T11:39:32;95276.84;;;35.13;32.15
70684;BME280;58263;48.146;11.440;2023-07-29T11:41:57;95275.47;;;36.38;30.65
70684;BME280;58263;48.146;11.440;2023-07-29T11:44:23;95270.69;;;37.92;28.88
70684;BME280;58263;48.146;11.440;2023-07-29T11:46:48;95274.00;;;39.32;26.21
70684;BME280;58263;48.146;11.440;2023-07-29T11:49:13;95271.94;;;39.36;25.26
70684;BME280;58263;48.146;11.440;2023-07-29T11:51:41;95263.50;;;41.12;23.78
70684;BME280;58263;48.146;11.440;2023-07-29T11:54:06;95270.16;;;40.56;25.33
70684;BME280;58263;48.146;11.440;2023-07-29T11:56:32;95249.00;;;38.98;25.69
70684;BME280;58263;48.146;11.440;2023-07-29T11:58:57;95253.78;;;40.18;24.38
70684;BME280;58263;48.146;11.440;2023-07-29T12:01:23;95245.88;;;40.79;23.21
70684;BME280;58263;48.146;11.440;2023-07-29T12:03:50;95246.16;;;42.50;21.60
70684;BME280;58263;48.146;11.440;2023-07-29T12:06:15;95246.31;;;41.23;23.56
70684;BME280;58263;48.146;11.440;2023-07-29T12:08:42;95249.69;;;42.02;22.96
70684;BME280;58263;48.146;11.440;2023-07-29T12:11:08;95243.25;;;42.53;23.49
70684;BME280;58263;48.146;11.440;2023-07-29T12:13:36;95226.34;;;40.88;23.22
70684;BME280;58263;48.146;11.440;2023-07-29T12:16:02;95237.19;;;40.73;24.03
70684;BME280;58263;48.146;11.440;2023-07-29T12:18:32;95226.47;;;39.82;23.89
70684;BME280;58263;48.146;11.440;2023-07-29T12:20:57;95216.41;;;37.51;27.75
70684;BME280;58263;48.146;11.440;2023-07-29T12:23:26;95214.22;;;38.48;27.08
70684;BME280;58263;48.146;11.440;2023-07-29T12:25:57;95215.91;;;37.29;29.23
70684;BME280;58263;48.146;11.440;2023-07-29T12:28:23;95220.91;;;37.45;29.69
70684;BME280;58263;48.146;11.440;2023-07-29T12:30:52;95213.28;;;37.11;29.47
70684;BME280;58263;48.146;11.440;2023-07-29T12:33:31;95207.28;;;35.69;31.17
70684;BME280;58263;48.146;11.440;2023-07-29T12:35:57;95197.72;;;34.42;33.77
70684;BME280;58263;48.146;11.440;2023-07-29T12:38:25;95186.19;;;34.14;33.01
70684;BME280;58263;48.146;11.440;2023-07-29T12:40:51;95203.69;;;32.31;36.44
70684;BME280;58263;48.146;11.440;2023-07-29T12:43:16;95240.53;;;31.15;38.97
70684;BME280;58263;48.146;11.440;2023-07-29T12:45:42;95251.53;;;30.05;41.92
70684;BME280;58263;48.146;11.440;2023-07-29T12:48:08;95242.63;;;30.15;42.74
70684;BME280;58263;48.146;11.440;2023-07-29T12:50:33;95236.00;;;29.77;45.42
70684;BME280;58263;48.146;11.440;2023-07-29T12:52:59;95233.63;;;28.61;50.05
70684;BME280;58263;48.146;11.440;2023-07-29T12:55:24;95237.81;;;28.20;51.82
70684;BME280;58263;48.146;11.440;2023-07-29T12:57:50;95241.34;;;28.20;50.54
70684;BME280;58263;48.146;11.440;2023-07-29T13:00:15;95253.91;;;26.88;53.00
70684;BME280;58263;48.146;11.440;2023-07-29T13:02:41;95266.75;;;26.84;55.32
70684;BME280;58263;48.146;11.440;2023-07-29T13:05:10;95288.19;;;26.04;60.43
70684;BME280;58263;48.146;11.440;2023-07-29T13:07:38;95294.63;;;25.75;61.16
70684;BME280;58263;48.146;11.440;2023-07-29T13:10:04;95257.06;;;25.67;62.91
70684;BME280;58263;48.146;11.440;2023-07-29T13:12:30;95268.75;;;25.42;64.65